Walgett, Australia
Current Conditions -  °F | °C
As of 4:54 PM on Tuesday 27 Jan 2015 (Local Time) from YMOR Reporting Station
Overcast Overcast  
Wind Chill: 77°   Ceiling: 5700
Heat Index: 79°   Visibility: 6mi
Dew Point: 63°   Wind: 17mph
Humidity: 61%   Direction: 190°S
Pressure: 29.59"   Gusts: 47mph
Location:  30.02°S, 148.12°E
Report Text: YMOR 270554Z AUTO 19015G41KT 9999 // SCT016 BKN057 OVC100 25/17 Q1002
Loading
Personal Weather Stations






























Interactive Weather Map New forecast layout! Learn more

10-Day Weather Forecast

Advertisements
Track Severe Weather on mobile